createdAt,value
2018-11-25T00:01:25.719Z,3.50
2018-11-25T00:03:56.677Z,3.40
2018-11-25T00:06:27.586Z,3.30
2018-11-25T00:08:58.685Z,3.30
2018-11-25T00:11:29.654Z,3.40
2018-11-25T00:14:00.681Z,3.40
2018-11-25T00:16:32.796Z,3.20
2018-11-25T00:19:03.856Z,3.00
2018-11-25T00:21:36.738Z,3.00
2018-11-25T00:24:07.962Z,3.00
2018-11-25T00:26:38.949Z,3.00
2018-11-25T00:29:09.942Z,3.10
2018-11-25T00:31:40.921Z,3.10
2018-11-25T00:34:11.956Z,3.20
2018-11-25T00:36:43.394Z,3.30
2018-11-25T00:39:14.666Z,3.20
2018-11-25T00:41:46.177Z,3.20
2018-11-25T00:44:17.158Z,3.30
2018-11-25T00:46:48.060Z,3.30
2018-11-25T00:49:18.997Z,3.20
2018-11-25T00:51:49.864Z,3.20
2018-11-25T00:54:20.813Z,3.20
2018-11-25T00:56:51.726Z,3.20
2018-11-25T00:59:22.701Z,3.10
2018-11-25T01:01:54.017Z,3.00
2018-11-25T01:04:25.046Z,2.90
2018-11-25T01:06:55.906Z,2.70
2018-11-25T01:09:26.980Z,2.70
2018-11-25T01:11:58.100Z,2.70
2018-11-25T01:14:29.125Z,2.70
2018-11-25T01:17:00.004Z,2.70
2018-11-25T01:19:31.001Z,2.70
2018-11-25T01:22:02.035Z,2.80
2018-11-25T01:24:33.151Z,2.80
2018-11-25T01:27:04.136Z,2.70
2018-11-25T01:29:35.129Z,2.70
2018-11-25T01:32:06.242Z,2.60
2018-11-25T01:34:37.316Z,2.70
2018-11-25T01:37:08.523Z,2.80
2018-11-25T01:39:39.618Z,2.90
2018-11-25T01:42:10.557Z,2.90
2018-11-25T01:44:42.457Z,2.80
2018-11-25T01:47:13.965Z,2.50
2018-11-25T01:49:45.031Z,2.40
2018-11-25T01:52:15.973Z,2.40
2018-11-25T01:54:47.073Z,2.30
2018-11-25T01:57:18.041Z,2.30
2018-11-25T01:59:49.330Z,2.40
2018-11-25T02:02:20.252Z,2.30
2018-11-25T02:04:51.357Z,2.40
2018-11-25T02:07:22.337Z,2.50
2018-11-25T02:09:53.390Z,2.60
2018-11-25T02:12:24.504Z,2.60
2018-11-25T02:14:55.550Z,2.50
2018-11-25T02:17:26.625Z,2.50
2018-11-25T02:19:57.687Z,2.60
2018-11-25T02:22:29.088Z,2.70
2018-11-25T02:24:59.751Z,2.70
2018-11-25T02:27:30.806Z,2.50
2018-11-25T02:30:01.817Z,2.50
2018-11-25T02:32:32.822Z,2.50
2018-11-25T02:35:03.985Z,2.50
2018-11-25T02:37:35.009Z,2.50
2018-11-25T02:40:09.315Z,2.50
2018-11-25T02:42:40.556Z,2.50
2018-11-25T02:45:14.249Z,2.50
2018-11-25T02:47:45.268Z,2.50
2018-11-25T02:50:29.102Z,2.50
2018-11-25T02:53:02.141Z,2.20
2018-11-25T02:55:33.201Z,2.10
2018-11-25T02:58:04.593Z,2.00
2018-11-25T03:00:35.610Z,2.20
2018-11-25T03:03:06.635Z,2.10
2018-11-25T03:05:37.599Z,2.10
2018-11-25T03:08:08.625Z,2.00
2018-11-25T03:10:39.675Z,2.00
2018-11-25T03:13:11.472Z,2.00
2018-11-25T03:15:43.204Z,2.20
2018-11-25T03:18:14.087Z,2.30
2018-11-25T03:20:45.026Z,2.20
2018-11-25T03:23:15.899Z,2.20
2018-11-25T03:25:46.876Z,2.20
2018-11-25T03:28:17.797Z,2.30
2018-11-25T03:30:48.736Z,2.30
2018-11-25T03:33:19.683Z,2.30
2018-11-25T03:35:50.925Z,2.40
2018-11-25T03:38:21.815Z,2.30
2018-11-25T03:40:53.016Z,2.30
2018-11-25T03:43:24.646Z,2.30
2018-11-25T03:45:55.600Z,2.20
2018-11-25T03:48:26.534Z,2.20
2018-11-25T03:50:57.533Z,2.10
2018-11-25T03:53:28.435Z,2.10
2018-11-25T03:55:59.806Z,2.20
2018-11-25T03:58:30.709Z,2.10
2018-11-25T04:01:01.640Z,2.10
2018-11-25T04:03:32.548Z,2.30
2018-11-25T04:06:03.558Z,2.30
2018-11-25T04:08:34.527Z,2.30
2018-11-25T04:11:05.472Z,2.20
2018-11-25T04:13:36.365Z,2.30
2018-11-25T04:16:07.821Z,2.40
2018-11-25T04:18:38.763Z,2.40
2018-11-25T04:21:09.769Z,2.40
2018-11-25T04:23:40.697Z,2.30
2018-11-25T04:26:11.685Z,2.10
2018-11-25T04:28:42.659Z,2.10
2018-11-25T04:31:13.649Z,2.00
2018-11-25T04:33:45.636Z,2.10
2018-11-25T04:36:16.685Z,2.20
2018-11-25T04:38:47.994Z,2.10
2018-11-25T04:41:20.386Z,2.10
2018-11-25T04:43:51.657Z,1.90
2018-11-25T04:46:22.867Z,2.00
2018-11-25T04:48:54.302Z,2.00
2018-11-25T04:51:26.560Z,2.10
2018-11-25T04:53:57.867Z,2.10
2018-11-25T04:56:28.885Z,1.90
2018-11-25T04:58:59.797Z,1.90
2018-11-25T05:01:30.773Z,2.00
2018-11-25T05:04:02.419Z,2.00
2018-11-25T05:06:33.682Z,2.10
2018-11-25T05:09:05.278Z,2.10
2018-11-25T05:11:36.408Z,2.10
2018-11-25T05:14:08.110Z,2.20
2018-11-25T05:16:41.266Z,2.10
2018-11-25T05:19:12.192Z,2.00
2018-11-25T05:21:43.181Z,2.00
2018-11-25T05:24:14.089Z,2.10
2018-11-25T05:26:45.731Z,2.10
2018-11-25T05:29:16.637Z,2.10
2018-11-25T05:31:47.619Z,2.10
2018-11-25T05:34:18.551Z,2.10
2018-11-25T05:36:49.652Z,2.20
2018-11-25T05:39:20.597Z,2.10
2018-11-25T05:41:51.576Z,2.00
2018-11-25T05:44:22.518Z,1.90
2018-11-25T05:46:53.539Z,1.90
2018-11-25T05:49:24.532Z,2.00
2018-11-25T05:51:56.540Z,2.10
2018-11-25T05:54:27.944Z,1.90
2018-11-25T05:56:59.413Z,1.90
2018-11-25T05:59:31.005Z,1.80
2018-11-25T06:02:03.146Z,2.00
2018-11-25T06:04:34.078Z,1.90
2018-11-25T06:07:05.490Z,1.80
2018-11-25T06:09:36.933Z,1.70
2018-11-25T06:12:08.684Z,1.80
2018-11-25T06:14:39.863Z,1.90
2018-11-25T06:17:11.155Z,2.00
2018-11-25T06:19:42.354Z,2.10
2018-11-25T06:22:13.758Z,1.80
2018-11-25T06:24:44.943Z,1.70
2018-11-25T06:27:16.217Z,1.70
2018-11-25T06:29:47.366Z,1.70
2018-11-25T06:32:18.705Z,1.70
2018-11-25T06:34:49.918Z,1.70
2018-11-25T06:37:21.495Z,1.80
2018-11-25T06:39:52.406Z,2.10
2018-11-25T06:42:23.388Z,2.10
2018-11-25T06:44:54.286Z,2.00
2018-11-25T06:47:25.286Z,2.00
2018-11-25T06:49:56.240Z,2.10
2018-11-25T06:52:27.198Z,2.10
2018-11-25T06:54:58.154Z,2.10
2018-11-25T06:57:29.409Z,2.10
2018-11-25T07:00:00.355Z,2.10
2018-11-25T07:02:31.260Z,2.10
2018-11-25T07:05:02.195Z,2.10
2018-11-25T07:07:33.266Z,2.20
2018-11-25T07:10:04.282Z,2.30
2018-11-25T07:12:35.234Z,2.30
2018-11-25T07:15:09.229Z,2.30
2018-11-25T07:17:40.310Z,2.40
2018-11-25T07:20:14.297Z,2.40
2018-11-25T07:22:45.357Z,2.40
2018-11-25T07:25:18.233Z,2.50
2018-11-25T07:27:49.206Z,2.30
2018-11-25T07:30:22.329Z,2.30
2018-11-25T07:32:53.301Z,2.10
2018-11-25T07:35:25.738Z,2.00
2018-11-25T07:37:57.369Z,2.10
2018-11-25T07:40:28.678Z,2.00
2018-11-25T07:42:59.633Z,2.00
2018-11-25T07:45:30.997Z,1.90
2018-11-25T07:48:02.101Z,1.90
2018-11-25T07:50:33.033Z,1.90
2018-11-25T07:53:04.093Z,2.00
2018-11-25T07:55:36.122Z,2.00
2018-11-25T07:58:07.542Z,2.00
2018-11-25T08:00:39.586Z,2.00
2018-11-25T08:03:10.638Z,2.10
2018-11-25T08:05:41.641Z,2.10
2018-11-25T08:08:12.590Z,2.10
2018-11-25T08:10:43.486Z,2.20
2018-11-25T08:13:14.489Z,2.10
2018-11-25T08:15:45.528Z,2.20
2018-11-25T08:18:16.999Z,2.30
2018-11-25T08:20:47.911Z,2.30
2018-11-25T08:23:18.884Z,2.20
2018-11-25T08:25:49.806Z,2.20
2018-11-25T08:28:20.781Z,2.20
2018-11-25T08:30:51.706Z,2.20
2018-11-25T08:33:24.314Z,2.40
2018-11-25T08:35:55.337Z,2.40
2018-11-25T08:38:26.646Z,2.50
2018-11-25T08:40:57.498Z,2.70
2018-11-25T08:43:28.466Z,2.80
2018-11-25T08:45:59.497Z,2.80
2018-11-25T08:48:31.613Z,2.80
2018-11-25T08:51:03.780Z,2.70
2018-11-25T08:53:35.131Z,2.70
2018-11-25T08:56:06.588Z,2.60
2018-11-25T08:58:38.881Z,2.70
2018-11-25T09:01:10.880Z,2.80
2018-11-25T09:03:41.819Z,2.80
2018-11-25T09:06:13.341Z,2.90
2018-11-25T09:08:46.688Z,2.90
2018-11-25T09:11:18.155Z,2.90
2018-11-25T09:13:51.445Z,2.90
2018-11-25T09:16:22.341Z,2.90
2018-11-25T09:18:55.842Z,3.20
2018-11-25T09:21:26.789Z,3.30
2018-11-25T09:23:57.739Z,3.30
2018-11-25T09:26:28.791Z,3.40
2018-11-25T09:28:59.882Z,3.40
2018-11-25T09:31:30.858Z,3.60
2018-11-25T09:34:01.716Z,3.60
2018-11-25T09:36:32.789Z,3.70
2018-11-25T09:39:10.145Z,3.70
2018-11-25T09:44:39.534Z,3.70
2018-11-25T09:47:11.457Z,3.70
2018-11-25T09:49:44.611Z,3.80
2018-11-25T09:52:23.753Z,3.70
2018-11-25T09:55:15.640Z,3.90
2018-11-25T09:57:52.007Z,4.00
2018-11-25T10:00:26.787Z,4.00
2018-11-25T10:02:57.809Z,4.00
2018-11-25T10:05:40.018Z,4.10
2018-11-25T10:08:12.635Z,4.20
2018-11-25T10:10:44.152Z,4.20
2018-11-25T10:13:17.061Z,4.30
2018-11-25T10:15:51.255Z,4.40
2018-11-25T10:18:22.278Z,4.40
2018-11-25T10:20:53.690Z,4.50
2018-11-25T10:23:24.654Z,4.70
2018-11-25T10:25:55.568Z,4.70
2018-11-25T10:28:28.854Z,4.80
2018-11-25T10:31:03.613Z,4.70
2018-11-25T10:33:35.077Z,4.70
2018-11-25T10:36:07.895Z,4.90
2018-11-25T10:38:39.866Z,5.00
2018-11-25T10:41:13.320Z,5.10
2018-11-25T10:43:45.965Z,5.10
2018-11-25T10:46:18.670Z,5.20
2018-11-25T10:48:49.626Z,5.20
2018-11-25T10:51:20.636Z,5.20
2018-11-25T10:54:04.380Z,5.30
2018-11-25T10:56:36.978Z,5.40
2018-11-25T10:59:10.008Z,5.40
2018-11-25T11:01:56.032Z,5.50
2018-11-25T11:04:32.284Z,5.50
2018-11-25T11:07:08.295Z,5.60
2018-11-25T11:09:40.855Z,5.70
2018-11-25T11:12:12.514Z,5.70
2018-11-25T11:14:44.454Z,5.70
2018-11-25T11:17:15.341Z,5.80
2018-11-25T11:19:46.678Z,5.80
2018-11-25T11:22:19.340Z,5.80
2018-11-25T11:24:50.273Z,5.70
2018-11-25T11:27:21.165Z,5.70
2018-11-25T11:29:52.559Z,5.70
2018-11-25T11:32:23.601Z,5.80
2018-11-25T11:34:55.458Z,5.90
2018-11-25T11:37:27.068Z,5.90
2018-11-25T11:39:58.205Z,6.00
2018-11-25T11:42:29.203Z,6.10
2018-11-25T11:45:00.202Z,6.10
2018-11-25T11:47:31.220Z,6.10
2018-11-25T11:50:02.432Z,6.10
2018-11-25T11:52:33.712Z,6.20
2018-11-25T11:55:04.742Z,6.20
2018-11-25T11:57:35.636Z,6.10
2018-11-25T12:00:19.377Z,6.10
2018-11-25T12:02:50.469Z,6.00
2018-11-25T12:05:22.234Z,6.00
2018-11-25T12:07:55.332Z,6.00
2018-11-25T12:10:26.358Z,5.90
2018-11-25T12:12:57.380Z,6.00
2018-11-25T12:15:31.523Z,5.90
2018-11-25T12:18:02.557Z,6.00
2018-11-25T12:20:33.937Z,6.00
2018-11-25T12:23:05.052Z,6.00
2018-11-25T12:25:36.432Z,5.90
2018-11-25T12:28:08.006Z,5.90
2018-11-25T12:30:39.019Z,5.90
2018-11-25T12:33:09.948Z,5.80
2018-11-25T12:35:40.915Z,5.90
2018-11-25T12:38:11.879Z,6.00
2018-11-25T12:40:43.123Z,5.90
2018-11-25T12:43:14.136Z,5.80
2018-11-25T12:45:45.361Z,5.80
2018-11-25T12:48:16.346Z,5.80
2018-11-25T12:50:47.452Z,5.80
2018-11-25T12:53:18.827Z,5.70
2018-11-25T12:55:50.358Z,5.80
2018-11-25T12:58:21.577Z,5.70
2018-11-25T13:00:52.959Z,5.70
2018-11-25T13:03:24.217Z,5.70
2018-11-25T13:05:55.594Z,5.70
2018-11-25T13:08:26.916Z,5.80
2018-11-25T13:10:58.297Z,5.80
2018-11-25T13:13:29.532Z,5.90
2018-11-25T13:16:00.747Z,5.90
2018-11-25T13:18:32.117Z,5.90
2018-11-25T13:21:03.380Z,5.90
2018-11-25T13:23:34.369Z,6.00
2018-11-25T13:26:05.863Z,5.90
2018-11-25T13:28:36.766Z,5.90
2018-11-25T13:31:07.489Z,5.90
2018-11-25T13:33:38.607Z,5.90
2018-11-25T13:36:11.274Z,5.80
2018-11-25T13:38:42.359Z,5.80
2018-11-25T13:41:13.472Z,5.80
2018-11-25T13:43:44.521Z,5.90
2018-11-25T13:46:15.638Z,5.90
2018-11-25T13:48:46.827Z,5.90
2018-11-25T13:51:17.902Z,5.90
2018-11-25T13:53:49.014Z,5.90
2018-11-25T13:56:20.142Z,5.90
2018-11-25T13:58:51.155Z,5.90
2018-11-25T14:01:22.333Z,5.80
2018-11-25T14:03:53.708Z,5.80
2018-11-25T14:06:24.842Z,5.80
2018-11-25T14:08:56.618Z,5.80
2018-11-25T14:11:27.690Z,5.80
2018-11-25T14:13:58.723Z,5.80
2018-11-25T14:16:29.831Z,5.80
2018-11-25T14:19:00.836Z,5.80
2018-11-25T14:21:31.846Z,5.70
2018-11-25T14:24:02.858Z,5.70
2018-11-25T14:26:39.843Z,5.70
2018-11-25T14:29:10.863Z,5.70
2018-11-25T14:31:42.025Z,5.70
2018-11-25T14:34:13.104Z,5.70
2018-11-25T14:36:44.204Z,5.60
2018-11-25T14:39:15.769Z,5.60
2018-11-25T14:41:46.904Z,5.50
2018-11-25T14:44:17.907Z,5.50
2018-11-25T14:46:48.968Z,5.40
2018-11-25T14:49:19.960Z,5.30
2018-11-25T14:51:51.055Z,5.30
2018-11-25T14:54:23.213Z,5.20
2018-11-25T14:56:54.403Z,5.20
2018-11-25T14:59:25.443Z,5.20
2018-11-25T15:01:56.748Z,5.20
2018-11-25T15:04:27.748Z,5.20
2018-11-25T15:06:59.119Z,5.20
2018-11-25T15:09:30.187Z,5.10
2018-11-25T15:12:01.241Z,5.10
2018-11-25T15:14:32.564Z,5.10
2018-11-25T15:17:03.845Z,5.10
2018-11-25T15:19:34.995Z,5.10
2018-11-25T15:22:06.256Z,5.10
2018-11-25T15:24:37.262Z,5.10
2018-11-25T15:27:09.131Z,5.10
2018-11-25T15:29:40.199Z,5.10
2018-11-25T15:32:11.239Z,5.00
2018-11-25T15:34:42.781Z,5.10
2018-11-25T15:37:20.963Z,5.00
2018-11-25T15:39:52.120Z,5.00
2018-11-25T15:42:23.215Z,4.90
2018-11-25T15:44:54.135Z,4.90
2018-11-25T15:47:25.205Z,4.80
2018-11-25T15:49:56.217Z,4.70
2018-11-25T15:52:27.289Z,4.70
2018-11-25T15:54:58.317Z,4.70
2018-11-25T15:57:29.470Z,4.60
2018-11-25T16:00:01.444Z,4.60
2018-11-25T16:02:32.634Z,4.70
2018-11-25T16:05:03.654Z,4.60
2018-11-25T16:07:34.770Z,4.70
2018-11-25T16:10:08.101Z,4.60
2018-11-25T16:12:39.789Z,4.70
2018-11-25T16:15:16.378Z,4.60
2018-11-25T16:17:47.611Z,4.60
2018-11-25T16:20:21.856Z,4.50
2018-11-25T16:22:57.835Z,4.50
2018-11-25T16:25:50.589Z,4.50
2018-11-25T16:28:33.523Z,4.40
2018-11-25T16:31:04.880Z,4.40
2018-11-25T16:33:36.950Z,4.40
2018-11-25T16:36:08.259Z,4.30
2018-11-25T16:38:39.374Z,4.30
2018-11-25T16:41:10.602Z,4.30
2018-11-25T16:43:42.645Z,4.20
2018-11-25T16:46:13.702Z,4.20
2018-11-25T16:48:45.348Z,4.10
2018-11-25T16:51:16.423Z,4.00
2018-11-25T16:53:47.778Z,4.00
2018-11-25T16:56:19.050Z,3.90
2018-11-25T16:58:52.527Z,3.90
2018-11-25T17:01:23.711Z,3.80
2018-11-25T17:03:55.654Z,3.80
2018-11-25T17:06:26.947Z,3.90
2018-11-25T17:08:58.143Z,3.80
2018-11-25T17:11:29.682Z,3.80
2018-11-25T17:14:09.586Z,3.80
2018-11-25T17:16:40.699Z,3.80
2018-11-25T17:19:12.829Z,3.80
2018-11-25T17:21:43.890Z,3.70
2018-11-25T17:24:15.710Z,3.70
2018-11-25T17:26:47.966Z,3.70
2018-11-25T17:29:19.732Z,3.70
2018-11-25T17:31:53.182Z,3.70
2018-11-25T17:34:24.468Z,3.60
2018-11-25T17:36:55.433Z,3.60
2018-11-25T17:39:26.502Z,3.60
2018-11-25T17:41:58.427Z,3.60
2018-11-25T17:44:29.687Z,3.60
2018-11-25T17:47:02.286Z,3.60
2018-11-25T17:49:33.547Z,3.60
2018-11-25T17:52:04.585Z,3.60
2018-11-25T17:54:36.019Z,3.60
2018-11-25T17:57:07.126Z,3.60
2018-11-25T17:59:38.244Z,3.60
2018-11-25T18:02:09.736Z,3.60
2018-11-25T18:04:42.117Z,3.60
2018-11-25T18:07:13.303Z,3.60
2018-11-25T18:09:44.670Z,3.60
2018-11-25T18:12:15.639Z,3.50
2018-11-25T18:14:46.721Z,3.60
2018-11-25T18:17:19.238Z,3.60
2018-11-25T18:19:51.837Z,3.60
2018-11-25T18:22:27.984Z,3.60
2018-11-25T18:24:59.147Z,3.60
2018-11-25T18:27:31.183Z,3.60
2018-11-25T18:30:02.495Z,3.60
2018-11-25T18:32:33.911Z,3.60
2018-11-25T18:35:06.321Z,3.60
2018-11-25T18:37:37.862Z,3.50
2018-11-25T18:40:13.575Z,3.50
2018-11-25T18:42:45.756Z,3.60
2018-11-25T18:45:19.742Z,3.60
2018-11-25T18:47:52.303Z,3.60
2018-11-25T18:50:24.288Z,3.60
2018-11-25T18:53:07.383Z,3.60
2018-11-25T18:55:39.114Z,3.60
2018-11-25T18:58:10.293Z,3.60
2018-11-25T19:00:51.009Z,3.60
2018-11-25T19:03:22.449Z,3.60
2018-11-25T19:05:54.683Z,3.60
2018-11-25T19:08:26.344Z,3.60
2018-11-25T19:10:59.336Z,3.60
2018-11-25T19:13:30.950Z,3.60
2018-11-25T19:16:02.562Z,3.60
2018-11-25T19:18:34.075Z,3.60
2018-11-25T19:21:05.777Z,3.60
2018-11-25T19:23:37.452Z,3.60
2018-11-25T19:26:09.676Z,3.60
2018-11-25T19:28:41.133Z,3.60
2018-11-25T19:31:12.616Z,3.60
2018-11-25T19:33:45.307Z,3.70
2018-11-25T19:36:17.592Z,3.60
2018-11-25T19:38:49.192Z,3.70
2018-11-25T19:41:20.800Z,3.70
2018-11-25T19:43:52.275Z,3.60
2018-11-25T19:46:23.867Z,3.70
2018-11-25T19:48:55.545Z,3.70
2018-11-25T19:51:27.552Z,3.60
2018-11-25T19:53:59.255Z,3.60
2018-11-25T19:56:30.883Z,3.60
2018-11-25T19:59:03.755Z,3.60
2018-11-25T20:01:35.848Z,3.60
2018-11-25T20:04:08.400Z,3.70
2018-11-25T20:06:39.739Z,3.60
2018-11-25T20:09:12.247Z,3.70
2018-11-25T20:11:43.826Z,3.70
2018-11-25T20:14:15.358Z,3.70
2018-11-25T20:16:52.153Z,3.70
2018-11-25T20:19:23.670Z,3.70
2018-11-25T20:22:00.255Z,3.70
2018-11-25T20:24:31.799Z,3.70
2018-11-25T20:27:09.000Z,3.70
2018-11-25T20:29:40.847Z,3.70
2018-11-25T20:32:17.371Z,3.80
2018-11-25T20:34:49.095Z,3.70
2018-11-25T20:37:26.727Z,3.70
2018-11-25T20:39:52.521Z,3.80
2018-11-25T20:42:24.064Z,3.70
2018-11-25T20:44:55.574Z,3.70
2018-11-25T20:47:27.151Z,3.80
2018-11-25T20:49:58.647Z,3.80
2018-11-25T20:53:34.124Z,3.80
2018-11-25T20:56:05.509Z,3.80
2018-11-25T20:58:36.471Z,3.80
2018-11-25T21:01:07.425Z,3.70
2018-11-25T21:03:38.427Z,3.80
2018-11-25T21:06:09.511Z,3.80
2018-11-25T21:08:40.519Z,3.90
2018-11-25T21:11:11.446Z,3.80
2018-11-25T21:13:42.527Z,3.90
2018-11-25T21:16:13.471Z,3.90
2018-11-25T21:18:44.484Z,3.90
2018-11-25T21:21:15.471Z,3.80
2018-11-25T21:23:46.580Z,3.80
2018-11-25T21:26:17.591Z,3.80
2018-11-25T21:28:48.904Z,3.80
2018-11-25T21:31:19.895Z,3.80
2018-11-25T21:33:50.990Z,3.80
2018-11-25T21:36:21.991Z,3.90
2018-11-25T21:38:53.062Z,3.90
2018-11-25T21:41:24.030Z,3.90
2018-11-25T21:43:55.591Z,3.90
2018-11-25T21:46:26.644Z,4.00
2018-11-25T21:48:57.630Z,4.00
2018-11-25T21:51:28.709Z,4.00
2018-11-25T21:54:00.251Z,4.00
2018-11-25T21:56:31.162Z,3.90
2018-11-25T21:59:02.203Z,3.90
2018-11-25T22:01:33.180Z,3.90
2018-11-25T22:04:04.253Z,3.90
2018-11-25T22:06:35.141Z,3.80
2018-11-25T22:09:09.609Z,3.90
2018-11-25T22:11:40.532Z,3.90
2018-11-25T22:14:11.971Z,3.90
2018-11-25T22:16:42.947Z,3.90
2018-11-25T22:19:13.992Z,3.90
2018-11-25T22:21:44.952Z,3.90
2018-11-25T22:24:15.911Z,3.90
2018-11-25T22:26:46.931Z,3.80
2018-11-25T22:29:17.946Z,3.90
2018-11-25T22:31:48.976Z,3.90
2018-11-25T22:34:19.967Z,3.90
2018-11-25T22:36:50.970Z,3.90
2018-11-25T22:39:22.052Z,3.90
2018-11-25T22:41:52.979Z,3.90
2018-11-25T22:44:24.030Z,3.90
2018-11-25T22:46:55.079Z,3.90
2018-11-25T22:49:26.210Z,3.90
2018-11-25T22:51:58.130Z,3.90
2018-11-25T22:54:29.159Z,3.90
2018-11-25T22:57:00.122Z,4.00
2018-11-25T22:59:31.090Z,4.00
2018-11-25T23:02:01.982Z,4.00
2018-11-25T23:04:49.510Z,4.00
2018-11-25T23:07:20.549Z,3.90
2018-11-25T23:09:51.492Z,3.90
2018-11-25T23:12:22.431Z,3.90
2018-11-25T23:14:53.530Z,3.90
2018-11-25T23:17:24.449Z,3.90
2018-11-25T23:19:55.381Z,3.90
2018-11-25T23:22:26.341Z,3.90
2018-11-25T23:24:57.267Z,3.90
2018-11-25T23:27:28.185Z,3.90
2018-11-25T23:29:59.233Z,3.90
2018-11-25T23:32:30.213Z,3.90
2018-11-25T23:35:01.769Z,3.90
2018-11-25T23:37:32.783Z,3.90
2018-11-25T23:40:03.843Z,3.90
2018-11-25T23:42:35.142Z,3.90
2018-11-25T23:45:11.651Z,3.90
2018-11-25T23:47:43.557Z,3.90
2018-11-25T23:50:15.775Z,3.90
2018-11-25T23:52:48.567Z,4.00
2018-11-25T23:55:19.569Z,4.00
2018-11-25T23:57:50.518Z,4.00
